Time;durP1;ratioP1;P1;durP2;ratioP2;P2;SDS_P1;SDS_P2;PMS_P1;PMS_P2;Temp;Humidity;BMP_temperature;BMP_pressure;BME280_temperature;BME280_humidity;BME280_pressure;Samples;Min_cycle;Max_cycle;Signal;HPM_P1;HPM_P2
2023/01/17 00:00:28;;;;;;;;;;;;;;;20.34;51.76;97598.56;4896893;29;4289;-67
2023/01/17 00:02:55;;;;;;;;;;;;;;;20.32;51.80;97598.59;4896469;29;4172;-67
2023/01/17 00:09:51;;;;;;;;;;;;;;;20.33;51.79;97593.53;4894423;29;4202;-67
2023/01/17 00:11:14;;;;;;;;;;;;;;;20.32;51.70;97595.72;4894239;29;5354;-67
2023/01/17 00:13:41;;;;;;;;;;;;;;;20.30;51.79;97592.84;4895060;29;5434;-67
2023/01/17 00:16:07;;;;;;;;;;;;;;;20.30;51.75;97590.69;4898705;29;5177;-67
2023/01/17 00:18:34;;;;;;;;;;;;;;;20.29;51.85;97591.41;4901631;29;4207;-67
2023/01/17 00:26:30;;;;;;;;;;;;;;;20.27;51.64;97579.91;4896679;29;4597;-67
2023/01/17 01:35:46;;;;;;;;;;;;;;;20.23;52.12;97551.22;4895137;29;4191;-68
2023/01/17 01:38:12;;;;;;;;;;;;;;;20.22;51.96;97552.66;4899735;29;4287;-67
2023/01/17 01:40:42;;;;;;;;;;;;;;;20.22;51.95;97552.66;4899366;29;4178;-67
2023/01/17 01:43:08;;;;;;;;;;;;;;;20.21;51.82;97546.22;4899501;29;4450;-67
2023/01/17 01:45:34;;;;;;;;;;;;;;;20.20;52.02;97538.31;4895383;29;4309;-67
2023/01/17 01:48:01;;;;;;;;;;;;;;;20.20;51.94;97544.06;4893869;29;5141;-67
2023/01/17 01:50:28;;;;;;;;;;;;;;;20.20;51.98;97541.91;4896943;29;4238;-67
2023/01/17 01:52:54;;;;;;;;;;;;;;;20.19;52.04;97543.34;4914449;29;5242;-67
2023/01/17 01:55:22;;;;;;;;;;;;;;;20.18;51.99;97533.31;4897622;29;4193;-67
2023/01/17 01:57:50;;;;;;;;;;;;;;;20.18;51.96;97532.56;4897720;29;4109;-67
2023/01/17 02:00:17;;;;;;;;;;;;;;;20.18;52.17;97544.06;4896913;29;5288;-67
2023/01/17 02:02:44;;;;;;;;;;;;;;;20.17;52.13;97542.63;4901663;29;4043;-67
2023/01/17 02:05:10;;;;;;;;;;;;;;;20.16;52.04;97541.19;4897449;29;4186;-67
2023/01/17 02:07:38;;;;;;;;;;;;;;;20.15;52.09;97536.91;4894052;29;4195;-67
2023/01/17 02:10:05;;;;;;;;;;;;;;;20.15;52.07;97534.03;4891412;29;4243;-67
2023/01/17 02:12:31;;;;;;;;;;;;;;;20.14;52.14;97544.81;4892283;29;4202;-68
2023/01/17 02:14:57;;;;;;;;;;;;;;;20.14;51.91;97521.13;4894675;29;4238;-68
2023/01/17 02:17:37;;;;;;;;;;;;;;;20.13;51.94;97525.44;4896649;29;4011;-68
2023/01/17 02:20:15;;;;;;;;;;;;;;;20.12;51.90;97524.72;4892847;29;5815;-68
2023/01/17 02:23:06;;;;;;;;;;;;;;;20.11;51.85;97528.31;4896583;29;5263;-68
2023/01/17 02:25:38;;;;;;;;;;;;;;;20.12;51.95;97524.00;4891240;29;4223;-67
2023/01/17 02:28:14;;;;;;;;;;;;;;;20.10;51.84;97530.47;4899903;29;4182;-68
2023/01/17 02:30:43;;;;;;;;;;;;;;;20.09;51.71;97526.88;4891682;29;4525;-68
2023/01/17 02:33:18;;;;;;;;;;;;;;;20.07;51.76;97518.28;4901747;29;4211;-68
2023/01/17 02:35:53;;;;;;;;;;;;;;;20.08;51.84;97525.44;4898425;29;3997;-67
2023/01/17 02:38:23;;;;;;;;;;;;;;;20.08;51.65;97524.75;4904259;29;4248;-68
2023/01/17 02:40:53;;;;;;;;;;;;;;;20.07;51.67;97529.06;4899916;29;4130;-68
2023/01/17 02:43:19;;;;;;;;;;;;;;;20.05;51.63;97521.16;4912797;29;4162;-68
2023/01/17 02:45:46;;;;;;;;;;;;;;;20.06;51.72;97521.88;4919170;29;4172;-67
2023/01/17 02:48:13;;;;;;;;;;;;;;;20.06;51.68;97531.19;4901716;29;5211;-67
2023/01/17 02:50:46;;;;;;;;;;;;;;;20.04;51.59;97534.09;4903432;29;5155;-67
2023/01/17 02:53:26;;;;;;;;;;;;;;;20.04;51.49;97528.38;4919690;29;4271;-68
2023/01/17 02:59:49;;;;;;;;;;;;;;;20.03;51.61;97529.78;4890751;29;4208;-67
2023/01/17 03:02:19;;;;;;;;;;;;;;;20.01;51.57;97521.19;4892268;29;4092;-67
2023/01/17 03:04:47;;;;;;;;;;;;;;;20.01;51.36;97535.53;4894000;29;4044;-68
2023/01/17 03:07:16;;;;;;;;;;;;;;;20.00;51.41;97530.53;4892316;29;4356;-67
2023/01/17 03:09:44;;;;;;;;;;;;;;;20.01;51.26;97529.78;4911526;29;3998;-67
2023/01/17 03:12:10;;;;;;;;;;;;;;;20.00;51.36;97531.25;4895423;29;4383;-67
2023/01/17 03:14:37;;;;;;;;;;;;;;;20.01;51.32;97526.91;4901743;29;4210;-67
2023/01/17 03:17:03;;;;;;;;;;;;;;;20.03;51.44;97526.22;4898405;29;4221;-67
2023/01/17 03:19:30;;;;;;;;;;;;;;;20.04;51.70;97525.50;4902148;29;4143;-67
2023/01/17 03:21:56;;;;;;;;;;;;;;;20.03;51.59;97524.03;4898453;29;4059;-68
2023/01/17 03:24:22;;;;;;;;;;;;;;;20.05;51.74;97524.03;4898048;29;4136;-68
2023/01/17 03:26:49;;;;;;;;;;;;;;;20.07;51.76;97531.94;4893349;29;6252;-67
2023/01/17 03:29:15;;;;;;;;;;;;;;;20.08;51.82;97524.75;4895609;29;4210;-67
2023/01/17 03:31:41;;;;;;;;;;;;;;;20.07;51.91;97529.78;4898262;29;5454;-68
2023/01/17 03:34:08;;;;;;;;;;;;;;;20.08;51.89;97530.47;4898446;29;4213;-67
2023/01/17 03:36:34;;;;;;;;;;;;;;;20.07;52.02;97529.78;4895747;29;4189;-68
2023/01/17 03:39:01;;;;;;;;;;;;;;;20.09;52.09;97538.38;4896024;29;4278;-68
2023/01/17 03:41:28;;;;;;;;;;;;;;;20.09;52.17;97532.63;4897232;29;4222;-67
2023/01/17 03:43:54;;;;;;;;;;;;;;;20.10;52.09;97533.34;4903352;29;4227;-68
2023/01/17 03:46:24;;;;;;;;;;;;;;;20.11;52.22;97534.06;4903518;29;4195;-68
2023/01/17 03:48:51;;;;;;;;;;;;;;;20.13;52.38;97536.91;4892755;29;5158;-67
2023/01/17 03:51:17;;;;;;;;;;;;;;;20.13;52.21;97531.16;4897694;29;4214;-68
2023/01/17 03:53:45;;;;;;;;;;;;;;;20.15;52.13;97536.91;4897541;29;4228;-68
2023/01/17 03:56:12;;;;;;;;;;;;;;;20.16;52.41;97541.19;4892155;29;4156;-68
2023/01/17 03:58:39;;;;;;;;;;;;;;;20.16;52.31;97536.19;4896492;29;4800;-67
2023/01/17 04:01:05;;;;;;;;;;;;;;;20.15;52.25;97546.22;4892711;29;4210;-67
2023/01/17 04:03:32;;;;;;;;;;;;;;;20.15;52.01;97537.63;4893606;29;4211;-68
2023/01/17 04:05:58;;;;;;;;;;;;;;;20.15;52.24;97551.97;4894217;29;4060;-67
2023/01/17 04:08:25;;;;;;;;;;;;;;;20.16;52.26;97549.81;4894188;29;4349;-67
2023/01/17 04:10:51;;;;;;;;;;;;;;;20.16;52.09;97564.19;4891333;29;5245;-67
2023/01/17 04:13:17;;;;;;;;;;;;;;;20.16;52.21;97558.44;4894816;29;4189;-68
2023/01/17 04:15:44;;;;;;;;;;;;;;;20.18;52.30;97549.81;4895102;29;4105;-68
2023/01/17 04:18:11;;;;;;;;;;;;;;;20.18;52.28;97555.56;4913230;29;4129;-68
2023/01/17 04:20:37;;;;;;;;;;;;;;;20.18;52.23;97555.56;4896982;29;4208;-68
2023/01/17 04:23:04;;;;;;;;;;;;;;;20.18;52.22;97567.03;4896988;29;4176;-68
2023/01/17 04:25:30;;;;;;;;;;;;;;;20.17;52.31;97565.63;4896946;29;4177;-68
2023/01/17 04:27:57;;;;;;;;;;;;;;;20.17;52.14;97568.50;4896382;29;4219;-68
2023/01/17 04:30:23;;;;;;;;;;;;;;;20.17;52.43;97571.38;4894445;29;4256;-68
2023/01/17 04:32:49;;;;;;;;;;;;;;;20.17;52.19;97574.25;4891878;29;4314;-68
2023/01/17 04:35:16;;;;;;;;;;;;;;;20.17;52.59;97569.19;4895792;29;4307;-68
2023/01/17 04:37:42;;;;;;;;;;;;;;;20.18;52.23;97584.28;4892444;29;4193;-68
2023/01/17 04:40:09;;;;;;;;;;;;;;;20.19;52.31;97579.97;4896200;29;4400;-67
2023/01/17 04:42:35;;;;;;;;;;;;;;;20.19;52.06;97580.69;4893519;29;4181;-68
2023/01/17 04:45:01;;;;;;;;;;;;;;;20.21;52.05;97582.84;4897813;29;4151;-67
2023/01/17 04:47:28;;;;;;;;;;;;;;;20.21;52.26;97583.56;4893075;29;3990;-67
2023/01/17 04:49:54;;;;;;;;;;;;;;;20.21;52.14;97583.56;4901069;29;4173;-67
2023/01/17 04:52:21;;;;;;;;;;;;;;;20.23;52.35;97585.72;4892989;29;4157;-67
2023/01/17 04:54:48;;;;;;;;;;;;;;;20.22;52.38;97584.25;4893515;29;4204;-68
2023/01/17 04:57:15;;;;;;;;;;;;;;;20.21;52.39;97595.03;4896016;29;4189;-67
2023/01/17 04:59:41;;;;;;;;;;;;;;;20.20;52.32;97601.50;4898152;29;4199;-67
2023/01/17 05:02:08;;;;;;;;;;;;;;;20.19;52.14;97608.69;4891075;29;4210;-67
2023/01/17 05:04:34;;;;;;;;;;;;;;;20.20;52.07;97610.13;4892840;29;4195;-66
2023/01/17 05:07:00;;;;;;;;;;;;;;;20.22;52.23;97610.13;4890751;29;4275;-66
2023/01/17 05:09:27;;;;;;;;;;;;;;;20.21;52.10;97612.28;4894374;29;4164;-66
2023/01/17 05:11:54;;;;;;;;;;;;;;;20.21;52.23;97623.06;4893425;29;4367;-67
2023/01/17 05:14:24;;;;;;;;;;;;;;;20.22;52.42;97624.47;4895728;29;5229;-68
2023/01/17 05:16:54;;;;;;;;;;;;;;;20.21;52.34;97608.69;4889667;29;4186;-67
2023/01/17 05:19:20;;;;;;;;;;;;;;;20.21;52.60;97623.75;4893294;29;4305;-67
2023/01/17 05:21:46;;;;;;;;;;;;;;;20.22;52.33;97624.47;4894617;29;5402;-67
2023/01/17 05:24:13;;;;;;;;;;;;;;;20.22;52.58;97627.34;4890304;29;5713;-67
2023/01/17 05:26:40;;;;;;;;;;;;;;;20.22;52.58;97635.97;4891807;29;4258;-65
2023/01/17 05:29:06;;;;;;;;;;;;;;;20.26;52.83;97644.56;4891329;29;4222;-69
2023/01/17 05:31:33;;;;;;;;;;;;;;;20.29;52.82;97654.59;4881601;29;4064;-69
2023/01/17 05:33:59;;;;;;;;;;;;;;;20.28;53.27;97658.94;4890873;29;4172;-66
2023/01/17 05:36:25;;;;;;;;;;;;;;;20.27;53.69;97648.88;4891740;29;4189;-66
2023/01/17 05:38:52;;;;;;;;;;;;;;;20.32;53.05;97647.44;4885965;29;4916;-69
2023/01/17 05:41:18;;;;;;;;;;;;;;;20.37;53.26;97663.19;4888184;29;4216;-60
2023/01/17 05:47:19;;;;;;;;;;;;;;;20.27;53.74;97666.09;4894771;29;4232;-61
2023/01/17 05:49:45;;;;;;;;;;;;;;;20.25;53.75;97666.13;4896800;29;4172;-61
2023/01/17 05:52:12;;;;;;;;;;;;;;;20.25;53.70;97674.75;4892877;29;5483;-61
2023/01/17 05:54:38;;;;;;;;;;;;;;;20.24;53.64;97679.06;4896860;29;4270;-61
2023/01/17 05:57:04;;;;;;;;;;;;;;;20.24;53.75;97679.06;4895407;29;4272;-61
2023/01/17 05:59:31;;;;;;;;;;;;;;;20.22;53.78;97679.75;4895860;29;4187;-61
2023/01/17 06:02:02;;;;;;;;;;;;;;;20.22;53.83;97688.38;4897571;29;4237;-61
2023/01/17 06:04:29;;;;;;;;;;;;;;;20.23;53.80;97697.75;4895065;29;5296;-61
2023/01/17 06:06:55;;;;;;;;;;;;;;;20.23;53.58;97700.59;4894192;29;4219;-61
2023/01/17 06:09:21;;;;;;;;;;;;;;;20.24;53.64;97707.78;4896711;29;5257;-62
2023/01/17 06:11:48;;;;;;;;;;;;;;;20.27;53.79;97712.06;4900946;29;5327;-62
2023/01/17 06:14:14;;;;;;;;;;;;;;;20.28;53.87;97713.50;4897035;29;4195;-62
2023/01/17 06:16:41;;;;;;;;;;;;;;;20.28;53.88;97725.00;4897621;29;4131;-61
2023/01/17 06:19:08;;;;;;;;;;;;;;;20.26;53.99;97716.41;4895649;29;4215;-61
2023/01/17 06:21:34;;;;;;;;;;;;;;;20.28;54.79;97727.88;4896740;29;4217;-62
2023/01/17 06:24:00;;;;;;;;;;;;;;;20.29;54.87;97726.44;4903707;29;4219;-61
2023/01/17 06:26:29;;;;;;;;;;;;;;;20.28;54.71;97728.59;4904155;29;6374;-61
2023/01/17 06:28:55;;;;;;;;;;;;;;;20.30;54.44;97733.63;4899436;29;4140;-61
2023/01/17 06:31:22;;;;;;;;;;;;;;;20.30;54.62;97737.22;4899331;29;4214;-62
2023/01/17 06:33:48;;;;;;;;;;;;;;;20.28;54.73;97737.22;4895921;29;4186;-62
2023/01/17 06:36:15;;;;;;;;;;;;;;;20.29;55.14;97738.66;4900941;29;4218;-62
2023/01/17 06:38:41;;;;;;;;;;;;;;;20.30;54.63;97733.63;4901953;29;4147;-62
2023/01/17 06:41:08;;;;;;;;;;;;;;;20.29;54.65;97735.03;4896388;29;4266;-62
2023/01/17 06:43:34;;;;;;;;;;;;;;;20.28;54.63;97742.25;4899199;29;6164;-62
2023/01/17 06:46:01;;;;;;;;;;;;;;;20.28;54.54;97745.13;4898879;29;4281;-62
2023/01/17 06:48:27;;;;;;;;;;;;;;;20.29;54.51;97737.91;4901555;29;5213;-63
2023/01/17 06:50:53;;;;;;;;;;;;;;;20.30;54.91;97753.72;4900576;29;4338;-64
2023/01/17 06:53:20;;;;;;;;;;;;;;;20.29;54.98;97760.91;4900445;29;4206;-61
2023/01/17 06:55:46;;;;;;;;;;;;;;;20.28;54.84;97759.47;4895208;29;4254;-63
2023/01/17 06:58:12;;;;;;;;;;;;;;;20.26;54.88;97763.06;4898970;29;5522;-61
2023/01/17 07:00:39;;;;;;;;;;;;;;;20.27;54.79;97758.78;4898243;29;5278;-61
2023/01/17 07:03:07;;;;;;;;;;;;;;;20.29;54.77;97761.66;4901917;29;4498;-61
2023/01/17 07:05:35;;;;;;;;;;;;;;;20.28;54.93;97765.94;4902693;29;4136;-61
2023/01/17 07:08:01;;;;;;;;;;;;;;;20.29;54.59;97769.53;4901418;29;4023;-61
2023/01/17 07:10:27;;;;;;;;;;;;;;;20.28;54.74;97776.72;4896419;29;4227;-61
2023/01/17 07:12:58;;;;;;;;;;;;;;;20.28;54.66;97776.72;4895249;29;5512;-61
2023/01/17 07:15:24;;;;;;;;;;;;;;;20.27;54.76;97772.41;4901068;29;4148;-61
2023/01/17 07:17:51;;;;;;;;;;;;;;;20.26;54.70;97779.59;4898984;29;5207;-61
2023/01/17 07:20:17;;;;;;;;;;;;;;;20.25;54.51;97772.44;4898047;29;5441;-61
2023/01/17 07:22:43;;;;;;;;;;;;;;;20.25;54.53;97778.16;4898091;29;4190;-61
2023/01/17 07:25:10;;;;;;;;;;;;;;;20.25;54.44;97795.41;4897501;29;4257;-61
2023/01/17 07:27:36;;;;;;;;;;;;;;;20.25;54.39;97801.16;4896363;29;5251;-61
2023/01/17 07:30:03;;;;;;;;;;;;;;;20.25;54.18;97792.53;4893973;29;4123;-61
2023/01/17 07:32:29;;;;;;;;;;;;;;;20.26;54.21;97797.53;4898673;29;4589;-62
2023/01/17 07:34:56;;;;;;;;;;;;;;;20.25;54.21;97787.50;4895153;29;5300;-62
2023/01/17 07:37:24;;;;;;;;;;;;;;;20.31;53.73;97804.00;4900811;29;4274;-62
2023/01/17 07:39:51;;;;;;;;;;;;;;;20.31;53.98;97792.50;4898884;29;5463;-62
2023/01/17 07:42:17;;;;;;;;;;;;;;;20.28;53.66;97803.28;4903512;29;4093;-62
2023/01/17 07:44:44;;;;;;;;;;;;;;;20.27;53.25;97809.75;4898864;29;4116;-62
2023/01/17 07:47:10;;;;;;;;;;;;;;;20.25;52.55;97806.91;4901748;29;4206;-61
2023/01/17 07:49:36;;;;;;;;;;;;;;;20.24;52.39;97799.72;4902314;29;5749;-62
2023/01/17 07:52:05;;;;;;;;;;;;;;;20.20;51.46;97814.06;4900990;29;4161;-61
2023/01/17 07:54:31;;;;;;;;;;;;;;;20.18;50.81;97808.31;4898389;29;4269;-62
2023/01/17 07:56:57;;;;;;;;;;;;;;;20.18;51.03;97808.31;4900721;29;4326;-62
2023/01/17 07:59:24;;;;;;;;;;;;;;;20.20;50.69;97822.69;4903063;29;5370;-62
2023/01/17 08:01:50;;;;;;;;;;;;;;;20.18;49.53;97820.56;4899626;29;4155;-62
2023/01/17 08:04:16;;;;;;;;;;;;;;;20.19;49.94;97804.03;4902580;29;4321;-62
2023/01/17 08:06:46;;;;;;;;;;;;;;;20.17;49.75;97812.66;4904624;29;5184;-62
2023/01/17 08:09:12;;;;;;;;;;;;;;;20.17;49.93;97809.78;4901908;29;4186;-62
2023/01/17 08:11:38;;;;;;;;;;;;;;;20.16;50.41;97822.69;4898730;29;5283;-61
2023/01/17 08:14:05;;;;;;;;;;;;;;;20.13;50.56;97815.53;4902290;29;4191;-61
2023/01/17 08:16:31;;;;;;;;;;;;;;;20.12;50.81;97819.84;4899299;29;4185;-62
2023/01/17 08:18:58;;;;;;;;;;;;;;;20.12;50.74;97828.47;4899810;29;4137;-61
2023/01/17 08:21:24;;;;;;;;;;;;;;;20.13;50.94;97835.63;4901102;29;4224;-61
2023/01/17 08:23:50;;;;;;;;;;;;;;;20.12;50.63;97825.59;4896674;29;4065;-62
2023/01/17 08:26:21;;;;;;;;;;;;;;;20.13;51.04;97829.88;4904768;29;4102;-61
2023/01/17 08:28:54;;;;;;;;;;;;;;;20.15;50.54;97836.34;4899525;29;4195;-62
2023/01/17 08:31:21;;;;;;;;;;;;;;;20.16;50.77;97837.06;4897969;29;5342;-61
2023/01/17 08:33:47;;;;;;;;;;;;;;;20.18;50.72;97837.06;4899314;29;5240;-61
2023/01/17 08:36:13;;;;;;;;;;;;;;;20.19;51.08;97852.88;4900171;29;4164;-61
2023/01/17 08:38:40;;;;;;;;;;;;;;;20.21;51.28;97852.88;4897486;29;4140;-61
2023/01/17 08:41:06;;;;;;;;;;;;;;;20.07;51.26;97850.72;4898505;29;4206;-61
2023/01/17 08:43:32;;;;;;;;;;;;;;;20.01;50.85;97857.16;4898589;29;5185;-61
2023/01/17 08:45:59;;;;;;;;;;;;;;;20.07;50.14;97859.34;4901716;29;4166;-61
2023/01/17 08:48:26;;;;;;;;;;;;;;;20.11;50.26;97867.22;4895546;29;3973;-61
2023/01/17 08:50:52;;;;;;;;;;;;;;;20.17;49.94;97875.84;4897729;29;4249;-61
2023/01/17 08:53:20;;;;;;;;;;;;;;;20.19;50.43;97867.22;4900374;29;4048;-61
2023/01/17 08:55:46;;;;;;;;;;;;;;;20.19;50.28;97882.31;4895452;29;4334;-61
2023/01/17 08:58:13;;;;;;;;;;;;;;;20.19;50.58;97879.44;4901142;29;3996;-61
2023/01/17 09:00:39;;;;;;;;;;;;;;;20.20;50.53;97880.16;4897383;29;4275;-61
2023/01/17 09:03:09;;;;;;;;;;;;;;;20.21;50.43;97887.34;4900019;29;4107;-61
2023/01/17 09:05:35;;;;;;;;;;;;;;;20.22;51.05;97894.50;4896612;29;5153;-61
2023/01/17 09:08:01;;;;;;;;;;;;;;;20.23;51.05;97893.09;4900910;29;5505;-62
2023/01/17 09:10:28;;;;;;;;;;;;;;;20.24;51.35;97897.38;4900085;29;4496;-62
2023/01/17 09:12:54;;;;;;;;;;;;;;;20.23;51.21;97896.66;4903186;29;5244;-62
2023/01/17 09:15:20;;;;;;;;;;;;;;;20.23;51.34;97907.44;4897657;29;5352;-63
2023/01/17 09:17:47;;;;;;;;;;;;;;;20.22;51.45;97906.00;4898443;29;5210;-62
2023/01/17 09:20:13;;;;;;;;;;;;;;;20.17;51.65;97904.56;4899890;29;4422;-61
2023/01/17 09:22:40;;;;;;;;;;;;;;;20.20;51.65;97914.63;4899736;29;4271;-63
2023/01/17 09:25:06;;;;;;;;;;;;;;;20.24;51.47;97926.13;4902284;29;4160;-62
2023/01/17 09:27:32;;;;;;;;;;;;;;;20.21;51.63;97933.31;4897675;29;5276;-63
2023/01/17 09:29:59;;;;;;;;;;;;;;;20.24;51.65;97944.06;4899902;29;4120;-62
2023/01/17 09:32:25;;;;;;;;;;;;;;;20.26;51.63;97949.81;4897284;29;4008;-62
2023/01/17 09:34:51;;;;;;;;;;;;;;;20.26;51.90;97937.59;4900052;29;5384;-62
2023/01/17 09:37:18;;;;;;;;;;;;;;;20.25;52.03;97953.41;4894107;29;4160;-62
2023/01/17 09:39:44;;;;;;;;;;;;;;;20.25;51.84;97959.88;4899779;29;4107;-62
2023/01/17 09:42:15;;;;;;;;;;;;;;;20.26;51.94;97969.22;4897937;29;5473;-62
2023/01/17 09:44:43;;;;;;;;;;;;;;;20.25;52.03;97974.25;4900121;29;4217;-62
2023/01/17 09:47:15;;;;;;;;;;;;;;;20.26;51.91;97974.97;4895379;29;5081;-62
2023/01/17 09:49:42;;;;;;;;;;;;;;;20.25;52.11;97973.53;4911751;29;4096;-62
2023/01/17 09:52:10;;;;;;;;;;;;;;;20.26;52.05;97972.81;4897746;29;4245;-62
2023/01/17 09:54:37;;;;;;;;;;;;;;;20.25;52.15;97979.28;4900461;29;4164;-63
2023/01/17 09:57:08;;;;;;;;;;;;;;;20.25;51.86;97991.47;4892760;29;4333;-62
2023/01/17 10:00:06;;;;;;;;;;;;;;;20.26;52.21;97989.31;4903416;29;4121;-62
2023/01/17 10:02:37;;;;;;;;;;;;;;;20.25;51.97;97994.34;4898753;29;4079;-63
2023/01/17 10:05:15;;;;;;;;;;;;;;;20.25;52.29;97999.38;4895414;29;4218;-61
2023/01/17 10:07:59;;;;;;;;;;;;;;;20.25;52.20;98008.00;4900660;29;4108;-62
2023/01/17 10:10:37;;;;;;;;;;;;;;;20.24;52.05;98009.44;4912372;29;4200;-62
2023/01/17 10:13:07;;;;;;;;;;;;;;;20.24;52.19;98012.31;4895032;29;4155;-62
2023/01/17 10:15:37;;;;;;;;;;;;;;;20.23;52.22;98017.34;4914534;29;4210;-63
2023/01/17 10:18:23;;;;;;;;;;;;;;;20.24;52.25;98024.50;4913431;29;4229;-62
2023/01/17 10:20:58;;;;;;;;;;;;;;;20.25;52.38;98028.84;4901459;29;4128;-62
2023/01/17 10:23:39;;;;;;;;;;;;;;;20.26;52.07;98032.41;4899974;29;4166;-62
2023/01/17 10:26:06;;;;;;;;;;;;;;;20.26;52.16;98038.16;4895356;29;4126;-62
2023/01/17 10:28:35;;;;;;;;;;;;;;;20.27;52.09;98040.34;4893145;29;5336;-62
2023/01/17 10:31:02;;;;;;;;;;;;;;;20.28;52.20;98041.03;4897310;29;4007;-62
2023/01/17 10:33:30;;;;;;;;;;;;;;;20.27;52.00;98048.94;4899488;29;4078;-63
2023/01/17 10:36:01;;;;;;;;;;;;;;;20.28;52.00;98052.53;4909460;29;4128;-62
2023/01/17 10:38:28;;;;;;;;;;;;;;;20.28;52.03;98046.78;4896187;29;4050;-63
2023/01/17 10:41:02;;;;;;;;;;;;;;;20.30;52.35;98052.53;4895135;29;4354;-62
2023/01/17 10:43:31;;;;;;;;;;;;;;;20.29;52.27;98053.97;4907954;29;4168;-63
2023/01/17 10:45:57;;;;;;;;;;;;;;;20.27;52.13;98063.31;4894195;29;5276;-62
2023/01/17 10:48:31;;;;;;;;;;;;;;;20.28;52.24;98059.00;4900108;29;4208;-62
2023/01/17 10:50:58;;;;;;;;;;;;;;;20.28;52.22;98064.03;4905785;29;4096;-62
2023/01/17 10:53:30;;;;;;;;;;;;;;;20.27;52.41;98068.31;4895809;29;4185;-62
2023/01/17 10:55:56;;;;;;;;;;;;;;;20.27;52.22;98079.81;4892573;29;4129;-62
2023/01/17 10:58:23;;;;;;;;;;;;;;;20.25;52.31;98077.69;4895310;29;5242;-62
2023/01/17 11:00:59;;;;;;;;;;;;;;;20.26;52.09;98081.97;4905053;29;4146;-62
2023/01/17 11:03:27;;;;;;;;;;;;;;;20.26;52.23;98089.88;4897581;29;4193;-64
2023/01/17 11:06:12;;;;;;;;;;;;;;;19.92;51.08;98093.34;4898665;29;6404;-63
2023/01/17 11:08:49;;;;;;;;;;;;;;;20.00;51.15;98096.28;4900454;29;4168;-63
2023/01/17 11:11:16;;;;;;;;;;;;;;;20.09;51.94;98101.31;4901478;29;4400;-62
2023/01/17 11:13:43;;;;;;;;;;;;;;;20.25;51.25;98094.91;4901186;29;4312;-66
2023/01/17 11:16:09;;;;;;;;;;;;;;;20.15;51.56;98097.03;4899406;29;4590;-63
2023/01/17 11:18:36;;;;;;;;;;;;;;;20.02;50.96;98107.75;4899989;29;4307;-64
2023/01/17 11:21:10;;;;;;;;;;;;;;;20.02;50.84;98107.75;4898495;29;5174;-64
2023/01/17 11:23:37;;;;;;;;;;;;;;;18.47;43.17;98115.94;4900494;29;4146;-64
2023/01/17 11:26:04;;;;;;;;;;;;;;;17.93;42.11;98118.19;4901842;29;4208;-63
2023/01/17 11:28:31;;;;;;;;;;;;;;;18.81;42.40;98116.28;4899898;29;5300;-63
2023/01/17 11:30:58;;;;;;;;;;;;;;;19.35;42.71;98108.81;4897715;29;4123;-63
2023/01/17 11:33:32;;;;;;;;;;;;;;;19.65;46.67;98111.16;4901979;29;4189;-63
2023/01/17 11:35:59;;;;;;;;;;;;;;;19.79;47.31;98112.66;4901229;29;5071;-68
2023/01/17 11:38:25;;;;;;;;;;;;;;;19.98;46.85;98114.22;4900994;29;4040;-66
2023/01/17 11:41:18;;;;;;;;;;;;;;;20.07;47.39;98112.09;4901032;29;4162;-64
2023/01/17 11:43:51;;;;;;;;;;;;;;;19.99;47.93;98115.63;4899324;29;4356;-63
2023/01/17 11:46:17;;;;;;;;;;;;;;;19.95;48.05;98123.50;4901978;29;4257;-64
2023/01/17 11:48:50;;;;;;;;;;;;;;;19.97;47.95;98121.38;4900697;29;4187;-64
2023/01/17 11:51:21;;;;;;;;;;;;;;;20.03;48.21;98126.44;4900013;29;4221;-64
2023/01/17 11:53:47;;;;;;;;;;;;;;;20.08;48.64;98122.84;4899602;29;4094;-63
2023/01/17 11:56:17;;;;;;;;;;;;;;;20.07;48.79;98130.03;4900539;29;4265;-64
2023/01/17 11:58:47;;;;;;;;;;;;;;;20.11;48.64;98128.59;4899517;29;4207;-64
2023/01/17 12:01:32;;;;;;;;;;;;;;;20.09;48.90;98135.78;4900490;29;4200;-63
2023/01/17 12:04:16;;;;;;;;;;;;;;;20.12;49.05;98121.44;4899116;29;4146;-64
2023/01/17 12:06:46;;;;;;;;;;;;;;;20.13;49.46;98117.84;4898108;29;4125;-64
2023/01/17 12:09:33;;;;;;;;;;;;;;;20.17;50.04;98115.00;4901127;29;5341;-64
2023/01/17 12:14:54;;;;;;;;;;;;;;;20.19;49.77;98120.75;4895976;29;4197;-64
2023/01/17 12:17:33;;;;;;;;;;;;;;;20.20;49.70;98122.19;4899180;29;5387;-64
2023/01/17 12:20:09;;;;;;;;;;;;;;;20.21;49.77;98114.28;4914041;29;4148;-64
2023/01/17 12:22:38;;;;;;;;;;;;;;;20.22;50.03;98125.06;4898898;29;5237;-64
2023/01/17 12:25:16;;;;;;;;;;;;;;;20.22;49.83;98136.53;4899735;29;4204;-64
2023/01/17 12:27:56;;;;;;;;;;;;;;;20.21;49.92;98128.66;4898440;29;4536;-64
2023/01/17 12:30:31;;;;;;;;;;;;;;;20.21;50.08;98134.41;4902950;29;4223;-64
2023/01/17 12:33:10;;;;;;;;;;;;;;;20.21;50.16;98140.16;4910386;29;4181;-64
2023/01/17 12:35:40;;;;;;;;;;;;;;;20.20;50.13;98150.94;4897129;29;4268;-64
2023/01/17 12:38:10;;;;;;;;;;;;;;;20.22;50.14;98150.19;4895046;29;4410;-64
2023/01/17 12:40:55;;;;;;;;;;;;;;;20.21;50.30;98151.63;4900493;29;4503;-64
2023/01/17 12:43:26;;;;;;;;;;;;;;;20.21;50.38;98160.25;4895518;29;4172;-64
2023/01/17 12:45:53;;;;;;;;;;;;;;;20.22;50.29;98164.56;4897975;29;4306;-64
2023/01/17 12:48:20;;;;;;;;;;;;;;;20.22;50.29;98167.44;4899193;29;4193;-64
2023/01/17 12:50:50;;;;;;;;;;;;;;;20.22;50.39;98171.03;4897498;29;4180;-64
2023/01/17 12:53:29;;;;;;;;;;;;;;;20.24;50.59;98173.19;4898485;29;5179;-63
2023/01/17 12:55:57;;;;;;;;;;;;;;;20.24;50.52;98176.06;4894386;29;4218;-64
2023/01/17 12:58:24;;;;;;;;;;;;;;;20.23;50.60;98180.38;4896257;29;4303;-64
2023/01/17 13:01:26;;;;;;;;;;;;;;;20.24;50.45;98182.53;4896026;29;4157;-64
2023/01/17 13:04:06;;;;;;;;;;;;;;;20.24;50.61;98181.81;4857869;29;4287;-64
2023/01/17 13:06:50;;;;;;;;;;;;;;;20.25;50.63;98180.41;4905285;29;4184;-64
2023/01/17 13:09:17;;;;;;;;;;;;;;;20.26;50.44;98179.66;4899586;29;4146;-64
2023/01/17 13:11:48;;;;;;;;;;;;;;;20.28;50.47;98184.72;4897966;29;4214;-64
2023/01/17 13:14:15;;;;;;;;;;;;;;;20.29;50.67;98183.25;4891740;29;4168;-64
2023/01/17 13:16:43;;;;;;;;;;;;;;;20.30;50.52;98187.59;4895739;29;6383;-64
2023/01/17 13:19:28;;;;;;;;;;;;;;;20.29;50.58;98189.00;4894701;29;4123;-64
2023/01/17 13:21:54;;;;;;;;;;;;;;;20.30;50.49;98201.97;4893423;29;4181;-64
2023/01/17 13:24:24;;;;;;;;;;;;;;;20.29;50.55;98203.38;4898569;29;5278;-64
2023/01/17 13:26:53;;;;;;;;;;;;;;;20.28;50.63;98205.53;4892695;29;5225;-64
2023/01/17 13:29:20;;;;;;;;;;;;;;;20.29;50.63;98209.13;4891821;29;4214;-65
2023/01/17 13:31:47;;;;;;;;;;;;;;;20.29;50.81;98209.13;4898109;29;4143;-65
2023/01/17 13:34:33;;;;;;;;;;;;;;;20.31;50.70;98212.00;4898041;29;4354;-66
2023/01/17 13:37:07;;;;;;;;;;;;;;;20.34;50.81;98215.59;4893450;29;4057;-65
2023/01/17 13:39:40;;;;;;;;;;;;;;;20.35;51.03;98217.06;4899741;29;4143;-65
2023/01/17 13:42:25;;;;;;;;;;;;;;;20.35;50.76;98217.06;4893858;29;5240;-65
2023/01/17 13:44:51;;;;;;;;;;;;;;;20.36;50.96;98227.84;4893584;29;4146;-64
2023/01/17 13:47:17;;;;;;;;;;;;;;;20.34;51.10;98222.09;4896256;29;3924;-64
2023/01/17 13:49:46;;;;;;;;;;;;;;;20.34;51.00;98227.84;4897506;29;5226;-63
2023/01/17 13:52:18;;;;;;;;;;;;;;;20.34;51.07;98236.47;4896333;29;4103;-65
2023/01/17 13:55:14;;;;;;;;;;;;;;;20.33;51.01;98243.63;4902296;29;4132;-64
2023/01/17 13:57:45;;;;;;;;;;;;;;;20.35;51.10;98246.53;4892283;29;3939;-65
2023/01/17 14:00:15;;;;;;;;;;;;;;;20.35;50.99;98246.53;4898160;29;4197;-64
2023/01/17 14:02:41;;;;;;;;;;;;;;;20.35;51.02;98251.56;4892303;29;3998;-62
2023/01/17 14:05:13;;;;;;;;;;;;;;;20.04;49.68;98254.97;4896235;29;4025;-63
2023/01/17 14:07:59;;;;;;;;;;;;;;;20.02;50.95;98252.09;4898022;29;4277;-64
2023/01/17 14:10:27;;;;;;;;;;;;;;;20.19;50.08;98255.06;4894693;29;4167;-64
2023/01/17 14:12:54;;;;;;;;;;;;;;;20.25;50.17;98263.72;4907917;29;4101;-63
2023/01/17 14:15:21;;;;;;;;;;;;;;;20.29;50.29;98266.59;4896545;29;4045;-63
2023/01/17 14:17:49;;;;;;;;;;;;;;;20.31;50.37;98275.22;4895504;29;4046;-64
2023/01/17 14:20:16;;;;;;;;;;;;;;;20.33;50.57;98286.03;4887758;29;4238;-63
2023/01/17 14:22:55;;;;;;;;;;;;;;;20.36;50.66;98288.19;4895021;29;4906;-63
2023/01/17 14:25:26;;;;;;;;;;;;;;;20.36;50.68;98288.19;4893386;29;4130;-63
2023/01/17 14:27:53;;;;;;;;;;;;;;;20.36;50.51;98299.69;4896323;29;5245;-63
2023/01/17 14:30:27;;;;;;;;;;;;;;;20.36;50.49;98302.56;4911325;29;5255;-63
2023/01/17 14:33:14;;;;;;;;;;;;;;;20.35;50.63;98303.28;4889949;29;4171;-63